sensor_id;sensor_type;location;lat;lon;timestamp;P1;durP1;ratioP1;P2;durP2;ratioP2
55328;SDS011;41205;44.264;19.884;2023-03-14T00:00:35;22.60;;;15.13;;
55328;SDS011;41205;44.264;19.884;2023-03-14T00:03:02;23.02;;;15.30;;
55328;SDS011;41205;44.264;19.884;2023-03-14T00:05:28;28.38;;;17.33;;
55328;SDS011;41205;44.264;19.884;2023-03-14T00:07:53;26.35;;;16.17;;
55328;SDS011;41205;44.264;19.884;2023-03-14T00:10:19;22.52;;;15.10;;
55328;SDS011;41205;44.264;19.884;2023-03-14T00:12:46;35.33;;;21.38;;
55328;SDS011;41205;44.264;19.884;2023-03-14T00:15:12;33.65;;;23.35;;
55328;SDS011;41205;44.264;19.884;2023-03-14T00:17:38;32.15;;;18.67;;
55328;SDS011;41205;44.264;19.884;2023-03-14T00:20:05;21.95;;;14.00;;
55328;SDS011;41205;44.264;19.884;2023-03-14T00:22:36;19.25;;;12.88;;
55328;SDS011;41205;44.264;19.884;2023-03-14T00:25:03;22.13;;;14.10;;
55328;SDS011;41205;44.264;19.884;2023-03-14T00:27:29;38.30;;;25.90;;
55328;SDS011;41205;44.264;19.884;2023-03-14T00:29:56;23.65;;;15.88;;
55328;SDS011;41205;44.264;19.884;2023-03-14T00:32:21;38.65;;;27.05;;
55328;SDS011;41205;44.264;19.884;2023-03-14T00:34:47;45.95;;;29.08;;
55328;SDS011;41205;44.264;19.884;2023-03-14T00:37:13;52.55;;;34.05;;
55328;SDS011;41205;44.264;19.884;2023-03-14T00:39:39;143.98;;;85.60;;
55328;SDS011;41205;44.264;19.884;2023-03-14T00:42:05;108.20;;;73.32;;
55328;SDS011;41205;44.264;19.884;2023-03-14T00:44:31;57.33;;;36.40;;
55328;SDS011;41205;44.264;19.884;2023-03-14T00:46:57;52.67;;;32.88;;
55328;SDS011;41205;44.264;19.884;2023-03-14T00:49:22;42.40;;;30.15;;
55328;SDS011;41205;44.264;19.884;2023-03-14T00:51:48;42.08;;;26.45;;
55328;SDS011;41205;44.264;19.884;2023-03-14T00:54:14;60.60;;;38.17;;
55328;SDS011;41205;44.264;19.884;2023-03-14T00:56:40;46.40;;;29.10;;
55328;SDS011;41205;44.264;19.884;2023-03-14T00:59:05;58.80;;;32.13;;
55328;SDS011;41205;44.264;19.884;2023-03-14T01:01:31;45.00;;;28.15;;
55328;SDS011;41205;44.264;19.884;2023-03-14T01:03:57;31.17;;;22.10;;
55328;SDS011;41205;44.264;19.884;2023-03-14T01:06:24;37.10;;;22.55;;
55328;SDS011;41205;44.264;19.884;2023-03-14T01:08:51;32.30;;;20.52;;
55328;SDS011;41205;44.264;19.884;2023-03-14T01:11:19;27.70;;;18.45;;
55328;SDS011;41205;44.264;19.884;2023-03-14T01:13:50;19.42;;;13.63;;
55328;SDS011;41205;44.264;19.884;2023-03-14T01:16:17;35.15;;;19.15;;
55328;SDS011;41205;44.264;19.884;2023-03-14T01:18:44;18.23;;;10.40;;
55328;SDS011;41205;44.264;19.884;2023-03-14T01:23:44;32.30;;;22.55;;
55328;SDS011;41205;44.264;19.884;2023-03-14T01:26:11;39.90;;;26.95;;
55328;SDS011;41205;44.264;19.884;2023-03-14T01:28:38;19.80;;;14.88;;
55328;SDS011;41205;44.264;19.884;2023-03-14T01:31:05;28.48;;;17.63;;
55328;SDS011;41205;44.264;19.884;2023-03-14T01:33:32;29.08;;;18.58;;
55328;SDS011;41205;44.264;19.884;2023-03-14T01:35:58;39.97;;;26.73;;
55328;SDS011;41205;44.264;19.884;2023-03-14T01:38:24;30.38;;;20.05;;
55328;SDS011;41205;44.264;19.884;2023-03-14T01:40:50;31.73;;;19.55;;
55328;SDS011;41205;44.264;19.884;2023-03-14T01:43:17;39.20;;;26.05;;
55328;SDS011;41205;44.264;19.884;2023-03-14T01:48:31;27.50;;;18.08;;
55328;SDS011;41205;44.264;19.884;2023-03-14T01:51:03;29.55;;;20.65;;
55328;SDS011;41205;44.264;19.884;2023-03-14T01:53:31;34.10;;;24.45;;
55328;SDS011;41205;44.264;19.884;2023-03-14T01:55:58;27.60;;;17.48;;
55328;SDS011;41205;44.264;19.884;2023-03-14T01:58:25;26.70;;;17.13;;
55328;SDS011;41205;44.264;19.884;2023-03-14T02:00:55;21.05;;;14.40;;
55328;SDS011;41205;44.264;19.884;2023-03-14T02:03:24;21.50;;;12.68;;
55328;SDS011;41205;44.264;19.884;2023-03-14T02:05:51;22.38;;;13.68;;
55328;SDS011;41205;44.264;19.884;2023-03-14T02:08:19;18.83;;;13.57;;
55328;SDS011;41205;44.264;19.884;2023-03-14T02:10:50;24.95;;;14.40;;
55328;SDS011;41205;44.264;19.884;2023-03-14T02:13:17;22.55;;;12.45;;
55328;SDS011;41205;44.264;19.884;2023-03-14T02:15:45;20.40;;;13.13;;
55328;SDS011;41205;44.264;19.884;2023-03-14T02:18:11;22.10;;;14.05;;
55328;SDS011;41205;44.264;19.884;2023-03-14T02:20:46;19.05;;;11.30;;
55328;SDS011;41205;44.264;19.884;2023-03-14T02:23:20;18.63;;;11.48;;
55328;SDS011;41205;44.264;19.884;2023-03-14T02:28:40;16.88;;;10.93;;
55328;SDS011;41205;44.264;19.884;2023-03-14T02:31:06;19.00;;;11.98;;
55328;SDS011;41205;44.264;19.884;2023-03-14T02:33:33;19.98;;;12.88;;
55328;SDS011;41205;44.264;19.884;2023-03-14T02:36:03;28.08;;;16.10;;
55328;SDS011;41205;44.264;19.884;2023-03-14T02:41:01;29.92;;;17.35;;
55328;SDS011;41205;44.264;19.884;2023-03-14T02:43:27;26.40;;;14.68;;
55328;SDS011;41205;44.264;19.884;2023-03-14T02:45:53;21.80;;;13.75;;
55328;SDS011;41205;44.264;19.884;2023-03-14T02:48:39;26.83;;;16.83;;
55328;SDS011;41205;44.264;19.884;2023-03-14T02:51:10;29.55;;;17.55;;
55328;SDS011;41205;44.264;19.884;2023-03-14T02:53:36;17.67;;;11.15;;
55328;SDS011;41205;44.264;19.884;2023-03-14T02:56:03;23.48;;;14.68;;
55328;SDS011;41205;44.264;19.884;2023-03-14T02:58:29;28.17;;;16.85;;
55328;SDS011;41205;44.264;19.884;2023-03-14T03:00:55;25.75;;;16.30;;
55328;SDS011;41205;44.264;19.884;2023-03-14T03:03:21;35.67;;;20.00;;
55328;SDS011;41205;44.264;19.884;2023-03-14T03:05:48;28.35;;;17.77;;
55328;SDS011;41205;44.264;19.884;2023-03-14T03:08:21;36.42;;;22.92;;
55328;SDS011;41205;44.264;19.884;2023-03-14T03:10:49;32.28;;;21.58;;
55328;SDS011;41205;44.264;19.884;2023-03-14T03:13:16;22.15;;;14.45;;
55328;SDS011;41205;44.264;19.884;2023-03-14T03:15:42;24.85;;;15.52;;
55328;SDS011;41205;44.264;19.884;2023-03-14T03:18:08;82.65;;;48.63;;
55328;SDS011;41205;44.264;19.884;2023-03-14T03:20:34;74.30;;;43.22;;
55328;SDS011;41205;44.264;19.884;2023-03-14T03:23:00;48.63;;;31.27;;
55328;SDS011;41205;44.264;19.884;2023-03-14T03:25:26;37.65;;;22.25;;
55328;SDS011;41205;44.264;19.884;2023-03-14T03:27:52;30.98;;;18.50;;
55328;SDS011;41205;44.264;19.884;2023-03-14T03:30:18;17.23;;;10.32;;
55328;SDS011;41205;44.264;19.884;2023-03-14T03:32:44;12.13;;;8.07;;
55328;SDS011;41205;44.264;19.884;2023-03-14T03:35:10;10.90;;;6.78;;
55328;SDS011;41205;44.264;19.884;2023-03-14T03:37:36;6.35;;;3.92;;
55328;SDS011;41205;44.264;19.884;2023-03-14T03:40:02;16.27;;;7.72;;
55328;SDS011;41205;44.264;19.884;2023-03-14T03:42:31;16.90;;;7.82;;
55328;SDS011;41205;44.264;19.884;2023-03-14T03:44:58;11.07;;;6.85;;
55328;SDS011;41205;44.264;19.884;2023-03-14T03:47:24;10.13;;;5.70;;
55328;SDS011;41205;44.264;19.884;2023-03-14T03:49:50;8.27;;;4.47;;
55328;SDS011;41205;44.264;19.884;2023-03-14T03:52:16;9.88;;;5.85;;
55328;SDS011;41205;44.264;19.884;2023-03-14T03:54:42;12.02;;;7.13;;
55328;SDS011;41205;44.264;19.884;2023-03-14T03:57:08;10.32;;;6.70;;
55328;SDS011;41205;44.264;19.884;2023-03-14T03:59:33;8.93;;;7.07;;
55328;SDS011;41205;44.264;19.884;2023-03-14T04:01:59;12.60;;;6.18;;
55328;SDS011;41205;44.264;19.884;2023-03-14T04:04:25;12.90;;;9.95;;
55328;SDS011;41205;44.264;19.884;2023-03-14T04:06:50;15.35;;;7.50;;
55328;SDS011;41205;44.264;19.884;2023-03-14T04:09:16;10.60;;;6.45;;
55328;SDS011;41205;44.264;19.884;2023-03-14T04:11:42;11.70;;;7.10;;
55328;SDS011;41205;44.264;19.884;2023-03-14T04:14:08;12.32;;;7.90;;
55328;SDS011;41205;44.264;19.884;2023-03-14T04:16:34;7.53;;;5.07;;
55328;SDS011;41205;44.264;19.884;2023-03-14T04:19:00;8.82;;;6.22;;
55328;SDS011;41205;44.264;19.884;2023-03-14T04:21:26;11.45;;;6.80;;
55328;SDS011;41205;44.264;19.884;2023-03-14T04:23:52;9.07;;;3.65;;
55328;SDS011;41205;44.264;19.884;2023-03-14T04:26:17;5.38;;;3.03;;
55328;SDS011;41205;44.264;19.884;2023-03-14T04:28:43;5.68;;;3.35;;
55328;SDS011;41205;44.264;19.884;2023-03-14T04:31:10;9.35;;;5.20;;
55328;SDS011;41205;44.264;19.884;2023-03-14T04:33:44;8.07;;;4.75;;
55328;SDS011;41205;44.264;19.884;2023-03-14T04:36:10;7.28;;;4.57;;
55328;SDS011;41205;44.264;19.884;2023-03-14T04:38:36;11.32;;;5.38;;
55328;SDS011;41205;44.264;19.884;2023-03-14T04:41:02;8.73;;;4.88;;
55328;SDS011;41205;44.264;19.884;2023-03-14T04:43:28;6.63;;;4.00;;
55328;SDS011;41205;44.264;19.884;2023-03-14T04:45:55;8.98;;;5.57;;
55328;SDS011;41205;44.264;19.884;2023-03-14T04:48:21;9.50;;;6.35;;
55328;SDS011;41205;44.264;19.884;2023-03-14T04:50:48;10.20;;;6.25;;
55328;SDS011;41205;44.264;19.884;2023-03-14T04:53:14;9.75;;;6.00;;
55328;SDS011;41205;44.264;19.884;2023-03-14T04:55:41;11.27;;;5.82;;
55328;SDS011;41205;44.264;19.884;2023-03-14T04:58:06;6.78;;;4.50;;
55328;SDS011;41205;44.264;19.884;2023-03-14T05:00:32;10.25;;;6.75;;
55328;SDS011;41205;44.264;19.884;2023-03-14T05:02:58;71.70;;;47.88;;
55328;SDS011;41205;44.264;19.884;2023-03-14T05:05:24;78.03;;;49.15;;
55328;SDS011;41205;44.264;19.884;2023-03-14T05:07:49;85.68;;;51.88;;
55328;SDS011;41205;44.264;19.884;2023-03-14T05:10:15;87.68;;;53.03;;
55328;SDS011;41205;44.264;19.884;2023-03-14T05:12:41;30.52;;;18.08;;
55328;SDS011;41205;44.264;19.884;2023-03-14T05:15:07;17.23;;;11.35;;
55328;SDS011;41205;44.264;19.884;2023-03-14T05:17:34;15.25;;;9.20;;
55328;SDS011;41205;44.264;19.884;2023-03-14T05:19:59;18.15;;;10.38;;
55328;SDS011;41205;44.264;19.884;2023-03-14T05:22:25;50.15;;;33.50;;
55328;SDS011;41205;44.264;19.884;2023-03-14T05:24:51;122.88;;;80.00;;
55328;SDS011;41205;44.264;19.884;2023-03-14T05:27:21;109.32;;;73.97;;
55328;SDS011;41205;44.264;19.884;2023-03-14T05:29:47;93.32;;;61.13;;
55328;SDS011;41205;44.264;19.884;2023-03-14T05:32:13;98.15;;;68.03;;
55328;SDS011;41205;44.264;19.884;2023-03-14T05:34:39;90.13;;;58.92;;
55328;SDS011;41205;44.264;19.884;2023-03-14T05:37:04;90.70;;;62.22;;
55328;SDS011;41205;44.264;19.884;2023-03-14T05:39:30;72.88;;;53.08;;
55328;SDS011;41205;44.264;19.884;2023-03-14T05:41:56;47.25;;;30.00;;
55328;SDS011;41205;44.264;19.884;2023-03-14T05:44:21;83.00;;;52.15;;
55328;SDS011;41205;44.264;19.884;2023-03-14T05:46:47;56.75;;;39.72;;
55328;SDS011;41205;44.264;19.884;2023-03-14T05:49:13;72.40;;;46.13;;
55328;SDS011;41205;44.264;19.884;2023-03-14T05:51:39;59.33;;;41.20;;
55328;SDS011;41205;44.264;19.884;2023-03-14T05:54:04;61.20;;;39.10;;
55328;SDS011;41205;44.264;19.884;2023-03-14T05:56:30;52.47;;;34.72;;
55328;SDS011;41205;44.264;19.884;2023-03-14T05:58:56;50.17;;;33.03;;
55328;SDS011;41205;44.264;19.884;2023-03-14T06:01:22;48.80;;;33.22;;
55328;SDS011;41205;44.264;19.884;2023-03-14T06:03:47;46.17;;;30.27;;
55328;SDS011;41205;44.264;19.884;2023-03-14T06:06:13;42.72;;;28.50;;
55328;SDS011;41205;44.264;19.884;2023-03-14T06:08:39;41.00;;;26.45;;
55328;SDS011;41205;44.264;19.884;2023-03-14T06:11:04;73.40;;;59.45;;
55328;SDS011;41205;44.264;19.884;2023-03-14T06:13:30;62.97;;;54.33;;
55328;SDS011;41205;44.264;19.884;2023-03-14T06:15:56;39.28;;;28.75;;
55328;SDS011;41205;44.264;19.884;2023-03-14T06:18:22;39.53;;;30.70;;
55328;SDS011;41205;44.264;19.884;2023-03-14T06:20:47;60.53;;;43.25;;
55328;SDS011;41205;44.264;19.884;2023-03-14T06:23:13;63.65;;;37.65;;
55328;SDS011;41205;44.264;19.884;2023-03-14T06:25:39;48.03;;;32.60;;
55328;SDS011;41205;44.264;19.884;2023-03-14T06:28:04;52.00;;;35.58;;
55328;SDS011;41205;44.264;19.884;2023-03-14T06:30:30;78.80;;;49.40;;
55328;SDS011;41205;44.264;19.884;2023-03-14T06:32:56;60.30;;;42.15;;
55328;SDS011;41205;44.264;19.884;2023-03-14T06:35:22;47.90;;;35.65;;
55328;SDS011;41205;44.264;19.884;2023-03-14T06:37:48;51.90;;;33.13;;
55328;SDS011;41205;44.264;19.884;2023-03-14T06:40:14;71.32;;;49.78;;
55328;SDS011;41205;44.264;19.884;2023-03-14T06:42:45;62.08;;;45.85;;
55328;SDS011;41205;44.264;19.884;2023-03-14T06:45:11;63.40;;;46.53;;
55328;SDS011;41205;44.264;19.884;2023-03-14T06:47:37;65.35;;;47.72;;
55328;SDS011;41205;44.264;19.884;2023-03-14T06:50:04;133.13;;;88.18;;
55328;SDS011;41205;44.264;19.884;2023-03-14T06:52:33;151.63;;;102.18;;
55328;SDS011;41205;44.264;19.884;2023-03-14T06:54:59;193.35;;;126.70;;
55328;SDS011;41205;44.264;19.884;2023-03-14T06:57:25;154.85;;;105.88;;
55328;SDS011;41205;44.264;19.884;2023-03-14T06:59:50;142.45;;;95.40;;
55328;SDS011;41205;44.264;19.884;2023-03-14T07:02:16;110.65;;;84.47;;
55328;SDS011;41205;44.264;19.884;2023-03-14T07:04:42;103.28;;;69.57;;
55328;SDS011;41205;44.264;19.884;2023-03-14T07:07:07;92.65;;;61.83;;
55328;SDS011;41205;44.264;19.884;2023-03-14T07:09:34;81.15;;;59.80;;
55328;SDS011;41205;44.264;19.884;2023-03-14T07:12:00;99.38;;;67.28;;
55328;SDS011;41205;44.264;19.884;2023-03-14T07:14:26;146.88;;;101.30;;
55328;SDS011;41205;44.264;19.884;2023-03-14T07:16:53;176.85;;;118.30;;
55328;SDS011;41205;44.264;19.884;2023-03-14T07:19:18;137.15;;;97.40;;
55328;SDS011;41205;44.264;19.884;2023-03-14T07:21:44;123.95;;;87.63;;
55328;SDS011;41205;44.264;19.884;2023-03-14T07:24:10;132.00;;;88.82;;
55328;SDS011;41205;44.264;19.884;2023-03-14T07:26:35;143.98;;;99.38;;
55328;SDS011;41205;44.264;19.884;2023-03-14T07:29:01;139.30;;;103.70;;
55328;SDS011;41205;44.264;19.884;2023-03-14T07:31:28;162.55;;;121.35;;
55328;SDS011;41205;44.264;19.884;2023-03-14T07:33:54;212.15;;;152.40;;
55328;SDS011;41205;44.264;19.884;2023-03-14T07:36:20;208.48;;;145.63;;
55328;SDS011;41205;44.264;19.884;2023-03-14T07:38:45;123.50;;;85.75;;
55328;SDS011;41205;44.264;19.884;2023-03-14T07:41:11;100.38;;;63.30;;
55328;SDS011;41205;44.264;19.884;2023-03-14T07:43:37;148.25;;;107.82;;
55328;SDS011;41205;44.264;19.884;2023-03-14T07:46:02;159.25;;;112.70;;
55328;SDS011;41205;44.264;19.884;2023-03-14T07:48:28;197.02;;;137.07;;
55328;SDS011;41205;44.264;19.884;2023-03-14T07:50:54;180.98;;;119.47;;
55328;SDS011;41205;44.264;19.884;2023-03-14T07:53:20;181.90;;;124.50;;
55328;SDS011;41205;44.264;19.884;2023-03-14T07:55:47;180.90;;;123.18;;
55328;SDS011;41205;44.264;19.884;2023-03-14T07:58:13;160.27;;;114.88;;
55328;SDS011;41205;44.264;19.884;2023-03-14T08:00:39;172.77;;;123.53;;
55328;SDS011;41205;44.264;19.884;2023-03-14T08:03:05;158.98;;;113.45;;
55328;SDS011;41205;44.264;19.884;2023-03-14T08:05:33;166.20;;;115.88;;
55328;SDS011;41205;44.264;19.884;2023-03-14T08:08:00;153.07;;;110.32;;
55328;SDS011;41205;44.264;19.884;2023-03-14T08:10:26;132.63;;;98.10;;
55328;SDS011;41205;44.264;19.884;2023-03-14T08:12:53;151.18;;;108.07;;
55328;SDS011;41205;44.264;19.884;2023-03-14T08:15:21;144.65;;;102.70;;
55328;SDS011;41205;44.264;19.884;2023-03-14T08:17:47;131.80;;;96.47;;
55328;SDS011;41205;44.264;19.884;2023-03-14T08:20:17;137.90;;;101.35;;
55328;SDS011;41205;44.264;19.884;2023-03-14T08:22:43;128.13;;;99.15;;
55328;SDS011;41205;44.264;19.884;2023-03-14T08:25:09;139.18;;;105.65;;
55328;SDS011;41205;44.264;19.884;2023-03-14T08:27:35;132.43;;;92.18;;
55328;SDS011;41205;44.264;19.884;2023-03-14T08:30:03;123.38;;;91.60;;
55328;SDS011;41205;44.264;19.884;2023-03-14T08:32:30;103.25;;;78.22;;
55328;SDS011;41205;44.264;19.884;2023-03-14T08:34:56;124.65;;;95.95;;
55328;SDS011;41205;44.264;19.884;2023-03-14T08:37:24;161.10;;;106.15;;
55328;SDS011;41205;44.264;19.884;2023-03-14T08:39:50;226.50;;;139.90;;
55328;SDS011;41205;44.264;19.884;2023-03-14T08:42:16;178.70;;;118.72;;
55328;SDS011;41205;44.264;19.884;2023-03-14T08:44:42;118.80;;;88.05;;
55328;SDS011;41205;44.264;19.884;2023-03-14T08:47:08;93.95;;;68.70;;
55328;SDS011;41205;44.264;19.884;2023-03-14T08:49:34;94.20;;;66.65;;
55328;SDS011;41205;44.264;19.884;2023-03-14T08:52:01;87.65;;;66.35;;
55328;SDS011;41205;44.264;19.884;2023-03-14T08:54:28;102.35;;;64.60;;
55328;SDS011;41205;44.264;19.884;2023-03-14T08:56:55;76.05;;;57.60;;
55328;SDS011;41205;44.264;19.884;2023-03-14T08:59:21;92.05;;;62.85;;
55328;SDS011;41205;44.264;19.884;2023-03-14T09:01:47;58.05;;;41.78;;
55328;SDS011;41205;44.264;19.884;2023-03-14T09:04:12;65.93;;;48.50;;
55328;SDS011;41205;44.264;19.884;2023-03-14T09:06:38;90.20;;;61.25;;
55328;SDS011;41205;44.264;19.884;2023-03-14T09:09:04;228.98;;;137.90;;
55328;SDS011;41205;44.264;19.884;2023-03-14T09:11:30;407.65;;;302.30;;
55328;SDS011;41205;44.264;19.884;2023-03-14T09:13:56;156.55;;;113.72;;
55328;SDS011;41205;44.264;19.884;2023-03-14T09:16:22;104.57;;;73.45;;
55328;SDS011;41205;44.264;19.884;2023-03-14T09:18:48;97.88;;;78.90;;
55328;SDS011;41205;44.264;19.884;2023-03-14T09:21:13;89.50;;;68.55;;
55328;SDS011;41205;44.264;19.884;2023-03-14T09:23:40;88.20;;;59.63;;
55328;SDS011;41205;44.264;19.884;2023-03-14T09:26:06;74.50;;;52.10;;
55328;SDS011;41205;44.264;19.884;2023-03-14T09:28:33;85.85;;;59.03;;
55328;SDS011;41205;44.264;19.884;2023-03-14T09:31:04;115.90;;;86.47;;
55328;SDS011;41205;44.264;19.884;2023-03-14T09:33:31;76.53;;;58.25;;
55328;SDS011;41205;44.264;19.884;2023-03-14T09:36:00;74.72;;;60.78;;
55328;SDS011;41205;44.264;19.884;2023-03-14T09:38:26;113.05;;;83.78;;
55328;SDS011;41205;44.264;19.884;2023-03-14T09:40:52;80.00;;;61.28;;
55328;SDS011;41205;44.264;19.884;2023-03-14T09:43:19;11.68;;;8.13;;
55328;SDS011;41205;44.264;19.884;2023-03-14T09:45:47;41.25;;;29.05;;
55328;SDS011;41205;44.264;19.884;2023-03-14T09:48:24;13.55;;;9.43;;
55328;SDS011;41205;44.264;19.884;2023-03-14T09:50:56;20.05;;;13.38;;
55328;SDS011;41205;44.264;19.884;2023-03-14T09:56:11;57.75;;;43.40;;
55328;SDS011;41205;44.264;19.884;2023-03-14T09:58:41;167.25;;;129.00;;
55328;SDS011;41205;44.264;19.884;2023-03-14T10:01:10;24.52;;;20.63;;
55328;SDS011;41205;44.264;19.884;2023-03-14T10:03:40;26.58;;;24.10;;
55328;SDS011;41205;44.264;19.884;2023-03-14T10:06:11;29.27;;;26.60;;
55328;SDS011;41205;44.264;19.884;2023-03-14T10:08:42;18.85;;;15.52;;
55328;SDS011;41205;44.264;19.884;2023-03-14T10:11:17;12.85;;;8.82;;
55328;SDS011;41205;44.264;19.884;2023-03-14T10:16:51;15.63;;;9.50;;
55328;SDS011;41205;44.264;19.884;2023-03-14T10:19:16;13.23;;;7.68;;
55328;SDS011;41205;44.264;19.884;2023-03-14T10:21:43;9.00;;;6.70;;
55328;SDS011;41205;44.264;19.884;2023-03-14T10:24:19;13.40;;;7.78;;
55328;SDS011;41205;44.264;19.884;2023-03-14T10:26:49;13.98;;;7.35;;
55328;SDS011;41205;44.264;19.884;2023-03-14T10:29:23;13.05;;;8.57;;
55328;SDS011;41205;44.264;19.884;2023-03-14T10:31:58;14.35;;;10.57;;
55328;SDS011;41205;44.264;19.884;2023-03-14T10:34:28;44.80;;;28.85;;
55328;SDS011;41205;44.264;19.884;2023-03-14T10:37:05;16.27;;;12.20;;
55328;SDS011;41205;44.264;19.884;2023-03-14T10:39:53;24.83;;;18.75;;
55328;SDS011;41205;44.264;19.884;2023-03-14T10:42:27;35.75;;;26.75;;
55328;SDS011;41205;44.264;19.884;2023-03-14T10:44:57;26.15;;;23.40;;
55328;SDS011;41205;44.264;19.884;2023-03-14T10:47:26;16.38;;;14.68;;
55328;SDS011;41205;44.264;19.884;2023-03-14T10:49:56;43.33;;;33.10;;
55328;SDS011;41205;44.264;19.884;2023-03-14T10:52:24;17.85;;;13.25;;
55328;SDS011;41205;44.264;19.884;2023-03-14T10:54:58;39.22;;;29.17;;
55328;SDS011;41205;44.264;19.884;2023-03-14T10:57:27;26.63;;;9.57;;
55328;SDS011;41205;44.264;19.884;2023-03-14T10:59:53;20.45;;;15.65;;
55328;SDS011;41205;44.264;19.884;2023-03-14T11:05:15;8.55;;;6.10;;
55328;SDS011;41205;44.264;19.884;2023-03-14T11:11:26;17.88;;;14.18;;
55328;SDS011;41205;44.264;19.884;2023-03-14T11:16:52;33.90;;;20.45;;
55328;SDS011;41205;44.264;19.884;2023-03-14T11:19:28;26.60;;;14.52;;
55328;SDS011;41205;44.264;19.884;2023-03-14T11:35:41;46.63;;;30.73;;
55328;SDS011;41205;44.264;19.884;2023-03-14T11:38:30;55.28;;;33.90;;
55328;SDS011;41205;44.264;19.884;2023-03-14T11:41:17;9.50;;;6.30;;
55328;SDS011;41205;44.264;19.884;2023-03-14T11:43:48;12.57;;;9.15;;
55328;SDS011;41205;44.264;19.884;2023-03-14T11:46:25;21.08;;;13.73;;
55328;SDS011;41205;44.264;19.884;2023-03-14T11:49:00;12.18;;;7.85;;
55328;SDS011;41205;44.264;19.884;2023-03-14T11:51:32;13.35;;;7.53;;
55328;SDS011;41205;44.264;19.884;2023-03-14T11:54:14;12.90;;;8.70;;
55328;SDS011;41205;44.264;19.884;2023-03-14T11:56:57;8.82;;;6.20;;
55328;SDS011;41205;44.264;19.884;2023-03-14T11:59:32;15.98;;;10.10;;
55328;SDS011;41205;44.264;19.884;2023-03-14T12:07:53;3.90;;;2.72;;
55328;SDS011;41205;44.264;19.884;2023-03-14T12:15:54;4.43;;;3.15;;
55328;SDS011;41205;44.264;19.884;2023-03-14T12:18:27;13.73;;;10.07;;
55328;SDS011;41205;44.264;19.884;2023-03-14T12:20:59;8.95;;;4.97;;
55328;SDS011;41205;44.264;19.884;2023-03-14T12:23:27;3.58;;;2.20;;
55328;SDS011;41205;44.264;19.884;2023-03-14T12:28:50;7.90;;;4.32;;
55328;SDS011;41205;44.264;19.884;2023-03-14T12:34:03;5.60;;;3.25;;
55328;SDS011;41205;44.264;19.884;2023-03-14T12:37:22;7.53;;;5.43;;
55328;SDS011;41205;44.264;19.884;2023-03-14T12:42:51;12.15;;;8.50;;
55328;SDS011;41205;44.264;19.884;2023-03-14T12:50:37;9.35;;;6.68;;
55328;SDS011;41205;44.264;19.884;2023-03-14T12:53:18;6.53;;;5.00;;
55328;SDS011;41205;44.264;19.884;2023-03-14T12:55:47;5.55;;;3.38;;
55328;SDS011;41205;44.264;19.884;2023-03-14T13:00:57;10.68;;;7.97;;
55328;SDS011;41205;44.264;19.884;2023-03-14T13:03:39;10.98;;;8.35;;
55328;SDS011;41205;44.264;19.884;2023-03-14T13:06:45;7.90;;;5.82;;
55328;SDS011;41205;44.264;19.884;2023-03-14T13:09:34;19.70;;;11.70;;
55328;SDS011;41205;44.264;19.884;2023-03-14T13:12:02;12.43;;;6.80;;
55328;SDS011;41205;44.264;19.884;2023-03-14T13:14:33;8.80;;;6.35;;
55328;SDS011;41205;44.264;19.884;2023-03-14T13:17:00;22.30;;;15.57;;
55328;SDS011;41205;44.264;19.884;2023-03-14T13:19:29;54.45;;;36.90;;
55328;SDS011;41205;44.264;19.884;2023-03-14T13:22:05;20.27;;;14.82;;
55328;SDS011;41205;44.264;19.884;2023-03-14T13:24:41;33.55;;;24.27;;
55328;SDS011;41205;44.264;19.884;2023-03-14T13:27:08;25.58;;;19.90;;
55328;SDS011;41205;44.264;19.884;2023-03-14T13:29:47;42.67;;;29.80;;
55328;SDS011;41205;44.264;19.884;2023-03-14T13:32:17;6.43;;;4.30;;
55328;SDS011;41205;44.264;19.884;2023-03-14T13:34:45;6.47;;;3.90;;
55328;SDS011;41205;44.264;19.884;2023-03-14T13:37:20;4.63;;;3.05;;
55328;SDS011;41205;44.264;19.884;2023-03-14T13:39:53;4.28;;;3.15;;
55328;SDS011;41205;44.264;19.884;2023-03-14T13:42:21;5.95;;;3.22;;
55328;SDS011;41205;44.264;19.884;2023-03-14T13:44:51;80.57;;;48.67;;
55328;SDS011;41205;44.264;19.884;2023-03-14T13:47:21;103.90;;;71.32;;
55328;SDS011;41205;44.264;19.884;2023-03-14T13:49:49;122.75;;;96.82;;
55328;SDS011;41205;44.264;19.884;2023-03-14T13:52:28;31.55;;;21.65;;
55328;SDS011;41205;44.264;19.884;2023-03-14T13:54:54;7.88;;;5.15;;
55328;SDS011;41205;44.264;19.884;2023-03-14T13:57:21;5.80;;;4.28;;
55328;SDS011;41205;44.264;19.884;2023-03-14T14:00:03;13.52;;;9.90;;
55328;SDS011;41205;44.264;19.884;2023-03-14T14:02:33;10.07;;;5.75;;
55328;SDS011;41205;44.264;19.884;2023-03-14T14:05:02;14.55;;;10.20;;
55328;SDS011;41205;44.264;19.884;2023-03-14T14:07:29;13.35;;;9.95;;
55328;SDS011;41205;44.264;19.884;2023-03-14T14:09:55;9.13;;;6.50;;
55328;SDS011;41205;44.264;19.884;2023-03-14T14:12:26;10.95;;;9.65;;
55328;SDS011;41205;44.264;19.884;2023-03-14T14:14:59;30.25;;;23.25;;
55328;SDS011;41205;44.264;19.884;2023-03-14T14:17:31;15.60;;;10.52;;
55328;SDS011;41205;44.264;19.884;2023-03-14T14:20:22;17.25;;;13.68;;
55328;SDS011;41205;44.264;19.884;2023-03-14T14:22:57;13.75;;;9.27;;
55328;SDS011;41205;44.264;19.884;2023-03-14T14:25:23;26.50;;;21.58;;
55328;SDS011;41205;44.264;19.884;2023-03-14T14:27:49;12.75;;;8.57;;
55328;SDS011;41205;44.264;19.884;2023-03-14T14:32:45;22.33;;;18.15;;
55328;SDS011;41205;44.264;19.884;2023-03-14T14:35:23;6.28;;;4.72;;
55328;SDS011;41205;44.264;19.884;2023-03-14T14:37:50;10.32;;;7.53;;
55328;SDS011;41205;44.264;19.884;2023-03-14T14:40:18;11.75;;;6.78;;
55328;SDS011;41205;44.264;19.884;2023-03-14T14:42:52;35.17;;;25.58;;
55328;SDS011;41205;44.264;19.884;2023-03-14T14:45:19;33.17;;;20.77;;
55328;SDS011;41205;44.264;19.884;2023-03-14T14:47:48;15.73;;;11.68;;
55328;SDS011;41205;44.264;19.884;2023-03-14T14:50:21;11.30;;;7.65;;
55328;SDS011;41205;44.264;19.884;2023-03-14T14:52:55;80.03;;;46.47;;
55328;SDS011;41205;44.264;19.884;2023-03-14T14:55:23;84.75;;;57.08;;
55328;SDS011;41205;44.264;19.884;2023-03-14T14:57:56;15.77;;;10.95;;
55328;SDS011;41205;44.264;19.884;2023-03-14T15:00:23;5.60;;;4.32;;
55328;SDS011;41205;44.264;19.884;2023-03-14T15:02:54;8.02;;;4.78;;
55328;SDS011;41205;44.264;19.884;2023-03-14T15:07:51;15.80;;;14.30;;
55328;SDS011;41205;44.264;19.884;2023-03-14T15:10:21;61.42;;;43.30;;
55328;SDS011;41205;44.264;19.884;2023-03-14T15:12:48;63.25;;;46.05;;
55328;SDS011;41205;44.264;19.884;2023-03-14T15:15:14;19.58;;;17.45;;
55328;SDS011;41205;44.264;19.884;2023-03-14T15:17:41;16.17;;;14.50;;
55328;SDS011;41205;44.264;19.884;2023-03-14T15:20:11;36.42;;;32.67;;
55328;SDS011;41205;44.264;19.884;2023-03-14T15:22:39;7.82;;;5.28;;
55328;SDS011;41205;44.264;19.884;2023-03-14T15:25:06;34.90;;;25.20;;
55328;SDS011;41205;44.264;19.884;2023-03-14T15:27:33;6.32;;;4.00;;
55328;SDS011;41205;44.264;19.884;2023-03-14T15:29:59;5.40;;;3.03;;